createdAt,value
2023-12-01T00:00:57.562Z,99707.16
2023-12-01T00:03:45.284Z,99704.50
2023-12-01T00:06:32.982Z,99697.19
2023-12-01T00:09:20.610Z,99697.31
2023-12-01T00:12:08.209Z,99694.78
2023-12-01T00:14:55.851Z,99695.69
2023-12-01T00:17:43.409Z,99692.13
2023-12-01T00:20:30.983Z,99687.06
2023-12-01T00:23:20.457Z,99692.44
2023-12-01T00:26:08.185Z,99687.38
2023-12-01T00:28:57.812Z,99691.84
2023-12-01T00:31:45.468Z,99690.13
2023-12-01T00:34:33.041Z,99679.47
2023-12-01T00:37:20.860Z,99683.81
2023-12-01T00:40:10.717Z,99677.00
2023-12-01T00:42:58.494Z,99675.41
2023-12-01T00:45:46.204Z,99680.78
2023-12-01T00:48:33.979Z,99673.75
2023-12-01T00:51:22.047Z,99678.19
2023-12-01T00:54:09.640Z,99675.59
2023-12-01T00:56:57.281Z,99675.72
2023-12-01T00:59:44.918Z,99665.16
2023-12-01T01:02:32.772Z,99675.59
2023-12-01T01:05:20.825Z,99673.66
2023-12-01T01:08:08.432Z,99656.94
2023-12-01T01:10:56.056Z,99648.13
2023-12-01T01:13:43.634Z,99655.13
2023-12-01T01:16:31.304Z,99652.66
2023-12-01T01:19:19.189Z,99656.13
2023-12-01T01:22:06.975Z,99661.47
2023-12-01T01:24:54.610Z,99654.28
2023-12-01T01:27:42.251Z,99634.78
2023-12-01T01:30:29.767Z,99632.13
2023-12-01T01:33:17.357Z,99627.78
2023-12-01T01:36:05.611Z,99635.75
2023-12-01T01:38:53.155Z,99627.69
2023-12-01T01:41:40.680Z,99635.69
2023-12-01T01:44:28.248Z,99631.31
2023-12-01T01:47:15.778Z,99624.94
2023-12-01T01:50:04.185Z,99618.75
2023-12-01T01:52:53.347Z,99624.13
2023-12-01T01:55:40.968Z,99635.00
2023-12-01T01:58:28.493Z,99629.81
2023-12-01T02:01:16.099Z,99633.19
2023-12-01T02:04:04.973Z,99629.72
2023-12-01T02:06:52.515Z,99620.91
2023-12-01T02:09:40.049Z,99624.44
2023-12-01T02:12:27.523Z,99619.06
2023-12-01T02:15:15.062Z,99626.06
2023-12-01T02:18:03.443Z,99605.75
2023-12-01T02:20:54.995Z,99612.06
2023-12-01T02:23:46.307Z,99606.78
2023-12-01T02:26:34.853Z,99610.22
2023-12-01T02:29:22.385Z,99597.09
2023-12-01T02:32:09.975Z,99597.97
2023-12-01T02:34:57.558Z,99592.69
2023-12-01T02:37:45.167Z,99583.81
2023-12-01T02:40:32.713Z,99572.53
2023-12-01T02:43:21.228Z,99568.00
2023-12-01T02:46:09.130Z,99561.22
2023-12-01T02:48:56.957Z,99552.22
2023-12-01T02:51:44.501Z,99554.03
2023-12-01T02:54:32.025Z,99546.69
2023-12-01T02:57:19.495Z,99541.19
2023-12-01T03:00:09.705Z,99552.78
2023-12-01T03:02:57.207Z,99553.69
2023-12-01T03:05:44.735Z,99549.19
2023-12-01T03:08:32.344Z,99566.06
2023-12-01T03:11:23.551Z,99557.25
2023-12-01T03:14:11.226Z,99574.69
2023-12-01T03:16:58.798Z,99562.41
2023-12-01T03:19:46.763Z,99563.94
2023-12-01T03:22:34.347Z,99566.44
2023-12-01T03:25:22.032Z,99560.38
2023-12-01T03:28:09.968Z,99556.81
2023-12-01T03:30:57.504Z,99550.31
2023-12-01T03:33:45.140Z,99554.53
2023-12-01T03:36:32.895Z,99556.00
2023-12-01T03:39:20.817Z,99553.34
2023-12-01T03:42:10.820Z,99564.84
2023-12-01T03:44:58.372Z,99563.25
2023-12-01T03:47:49.474Z,99559.81
2023-12-01T03:50:37.136Z,99568.66
2023-12-01T03:53:24.649Z,99570.38
2023-12-01T03:56:12.190Z,99566.13
2023-12-01T03:58:59.749Z,99568.97
2023-12-01T04:01:47.368Z,99562.09
2023-12-01T04:04:34.998Z,99555.09
2023-12-01T04:07:22.560Z,99570.13
2023-12-01T04:10:12.005Z,99569.31
2023-12-01T04:13:08.069Z,99567.25
2023-12-01T04:15:56.903Z,99565.31
2023-12-01T04:18:46.724Z,99564.50
2023-12-01T04:21:34.540Z,99568.97
2023-12-01T04:24:22.508Z,99561.97
2023-12-01T04:27:11.274Z,99565.31
2023-12-01T04:30:00.492Z,99571.44
2023-12-01T04:32:49.499Z,99564.97
2023-12-01T04:35:37.437Z,99559.69
2023-12-01T04:38:25.099Z,99558.06
2023-12-01T04:41:12.592Z,99560.53
2023-12-01T04:44:00.087Z,99562.91
2023-12-01T04:46:47.772Z,99550.53
2023-12-01T04:49:35.374Z,99555.69
2023-12-01T04:52:22.863Z,99557.41
2023-12-01T04:55:12.472Z,99551.34
2023-12-01T04:58:00.090Z,99557.41
2023-12-01T05:00:47.710Z,99545.34
2023-12-01T05:03:35.981Z,99552.25
2023-12-01T05:06:23.536Z,99548.81
2023-12-01T05:09:18.247Z,99550.56
2023-12-01T05:12:06.521Z,99551.28
2023-12-01T05:14:54.914Z,99542.81
2023-12-01T05:17:43.584Z,99541.78
2023-12-01T05:20:31.176Z,99534.78
2023-12-01T05:23:18.729Z,99545.25
2023-12-01T05:26:06.356Z,99547.53
2023-12-01T05:28:53.892Z,99543.19
2023-12-01T05:31:41.490Z,99545.00
2023-12-01T05:34:29.074Z,99539.97
2023-12-01T05:37:16.627Z,99550.41
2023-12-01T05:40:04.944Z,99541.44
2023-12-01T05:42:55.983Z,99542.66
2023-12-01T05:45:43.889Z,99550.53
2023-12-01T05:48:31.399Z,99554.09
2023-12-01T05:51:18.896Z,99547.19
2023-12-01T05:54:06.543Z,99552.47
2023-12-01T05:56:56.556Z,99549.97
2023-12-01T05:59:44.076Z,99556.16
2023-12-01T06:02:31.700Z,99551.72
2023-12-01T06:05:20.348Z,99552.69
2023-12-01T06:08:10.854Z,99556.78
2023-12-01T06:10:58.466Z,99558.91
2023-12-01T06:13:46.068Z,99555.56
2023-12-01T06:16:33.581Z,99557.34
2023-12-01T06:19:21.539Z,99566.81
2023-12-01T06:22:09.213Z,99574.69
2023-12-01T06:24:56.821Z,99567.00
2023-12-01T06:27:44.714Z,99576.19
2023-12-01T06:30:37.745Z,99581.00
2023-12-01T06:33:28.028Z,99576.78
2023-12-01T06:36:15.599Z,99572.31
2023-12-01T06:39:11.451Z,99580.81
2023-12-01T06:41:58.994Z,99576.72
2023-12-01T06:44:46.665Z,99582.00
2023-12-01T06:47:34.322Z,99578.13
2023-12-01T06:50:23.302Z,99576.81
2023-12-01T06:53:12.260Z,99584.81
2023-12-01T06:56:00.012Z,99594.22
2023-12-01T06:58:47.525Z,99589.44
2023-12-01T07:01:36.819Z,99592.47
2023-12-01T07:04:25.785Z,99582.56
2023-12-01T07:07:13.646Z,99599.78
2023-12-01T07:10:01.333Z,99607.09
2023-12-01T07:12:49.552Z,99604.47
2023-12-01T07:15:38.841Z,99612.38
2023-12-01T07:18:26.541Z,99607.75
2023-12-01T07:21:14.449Z,99612.38
2023-12-01T07:24:03.537Z,99602.94
2023-12-01T07:26:53.202Z,99610.28
2023-12-01T07:29:40.751Z,99607.56
2023-12-01T07:32:28.288Z,99609.88
2023-12-01T07:35:16.425Z,99607.00
2023-12-01T07:38:05.915Z,99604.16
2023-12-01T07:40:53.552Z,99603.09
2023-12-01T07:43:44.131Z,99610.13
2023-12-01T07:46:34.650Z,99612.19
2023-12-01T07:49:22.520Z,99620.94
2023-12-01T07:52:10.132Z,99628.81
2023-12-01T07:54:57.799Z,99631.31
2023-12-01T07:57:45.510Z,99633.94
2023-12-01T08:00:33.185Z,99630.06
2023-12-01T08:03:20.827Z,99640.06
2023-12-01T08:06:09.169Z,99640.13
2023-12-01T08:08:56.638Z,99653.88
2023-12-01T08:11:44.630Z,99655.56
2023-12-01T08:14:32.107Z,99652.31
2023-12-01T08:17:19.749Z,99653.03
2023-12-01T08:20:07.752Z,99653.53
2023-12-01T08:22:55.670Z,99661.44
2023-12-01T08:25:45.945Z,99669.09
2023-12-01T08:28:33.570Z,99663.91
2023-12-01T08:31:21.097Z,99662.81
2023-12-01T08:34:21.894Z,99667.97
2023-12-01T08:37:11.021Z,99673.88
2023-12-01T08:40:14.032Z,99672.03
2023-12-01T08:43:02.951Z,99684.53
2023-12-01T08:45:50.505Z,99691.63
2023-12-01T08:48:38.026Z,99703.34
2023-12-01T08:51:25.603Z,99714.06
2023-12-01T08:54:13.197Z,99707.75
2023-12-01T08:57:00.858Z,99710.78
2023-12-01T08:59:48.413Z,99707.63
2023-12-01T09:02:36.193Z,99720.50
2023-12-01T09:05:24.287Z,99730.00
2023-12-01T09:08:13.231Z,99722.69
2023-12-01T09:11:00.890Z,99716.50
2023-12-01T09:13:48.567Z,99724.31
2023-12-01T09:16:36.149Z,99737.19
2023-12-01T09:19:23.829Z,99739.50
2023-12-01T09:22:11.459Z,99734.00
2023-12-01T09:24:59.018Z,99743.22
2023-12-01T09:27:46.586Z,99744.19
2023-12-01T09:30:34.193Z,99746.00
2023-12-01T09:33:21.836Z,99745.34
2023-12-01T09:36:09.818Z,99742.38
2023-12-01T09:38:57.461Z,99748.44
2023-12-01T09:41:45.243Z,99748.69
2023-12-01T09:44:33.768Z,99748.78
2023-12-01T09:47:21.910Z,99757.53
2023-12-01T09:50:14.900Z,99768.69
2023-12-01T09:53:02.653Z,99763.22
2023-12-01T09:55:50.775Z,99765.38
2023-12-01T09:58:38.890Z,99780.31
2023-12-01T10:01:26.597Z,99770.84
2023-12-01T10:04:14.267Z,99779.13
2023-12-01T10:07:02.126Z,99788.78
2023-12-01T10:09:49.648Z,99778.69
2023-12-01T10:12:37.341Z,99786.00
2023-12-01T10:15:28.510Z,99790.59
2023-12-01T10:18:20.569Z,99788.13
2023-12-01T10:21:11.389Z,99783.34
2023-12-01T10:23:58.936Z,99796.41
2023-12-01T10:26:47.442Z,99785.63
2023-12-01T10:29:35.477Z,99788.13
2023-12-01T10:32:25.078Z,99792.50
2023-12-01T10:35:12.642Z,99797.06
2023-12-01T10:38:00.252Z,99801.47
2023-12-01T10:40:47.769Z,99802.16
2023-12-01T10:43:35.897Z,99802.22
2023-12-01T10:46:25.359Z,99807.13
2023-12-01T10:49:15.036Z,99807.22
2023-12-01T10:52:02.673Z,99805.13
2023-12-01T10:54:50.673Z,99812.28
2023-12-01T10:57:41.066Z,99803.38
2023-12-01T11:00:31.898Z,99803.50
2023-12-01T11:03:21.521Z,99809.69
2023-12-01T11:06:11.695Z,99812.72
2023-12-01T11:09:19.116Z,99816.69
2023-12-01T11:12:24.281Z,99825.25
2023-12-01T11:15:16.006Z,99826.81
2023-12-01T11:18:03.880Z,99835.19
2023-12-01T11:20:53.318Z,99836.88
2023-12-01T11:23:40.898Z,99832.25
2023-12-01T11:26:30.599Z,99838.25
2023-12-01T11:29:30.952Z,99837.69
2023-12-01T11:32:18.575Z,99847.06
2023-12-01T11:35:08.588Z,99847.19
2023-12-01T11:38:06.058Z,99861.47
2023-12-01T11:40:53.609Z,99857.88
2023-12-01T11:44:01.042Z,99857.53
2023-12-01T11:46:49.191Z,99856.56
2023-12-01T11:49:40.336Z,99864.84
2023-12-01T11:52:28.438Z,99859.44
2023-12-01T11:55:17.026Z,99867.13
2023-12-01T11:58:04.522Z,99862.47
2023-12-01T12:00:52.476Z,99866.25
2023-12-01T12:03:40.301Z,99865.28
2023-12-01T12:06:27.961Z,99872.22
2023-12-01T12:09:19.010Z,99875.75
2023-12-01T12:12:11.326Z,99878.94
2023-12-01T12:15:25.374Z,99884.31
2023-12-01T12:18:15.035Z,99875.13
2023-12-01T12:21:03.387Z,99879.31
2023-12-01T12:23:51.145Z,99884.50
2023-12-01T12:26:38.846Z,99891.88
2023-12-01T12:29:26.680Z,99897.41
2023-12-01T12:32:14.954Z,99901.69
2023-12-01T12:35:02.511Z,99896.16
2023-12-01T12:37:50.132Z,99900.53
2023-12-01T12:40:37.659Z,99897.13
2023-12-01T12:43:25.556Z,99897.84
2023-12-01T12:46:13.683Z,99892.75
2023-12-01T12:49:05.203Z,99902.97
2023-12-01T12:51:52.814Z,99902.84
2023-12-01T12:54:44.220Z,99905.28
2023-12-01T12:57:31.859Z,99905.13
2023-12-01T13:00:19.566Z,99899.91
2023-12-01T13:03:07.248Z,99908.88
2023-12-01T13:05:54.870Z,99900.13
2023-12-01T13:08:42.837Z,99900.50
2023-12-01T13:11:30.461Z,99908.38
2023-12-01T13:14:18.174Z,99908.03
2023-12-01T13:17:05.838Z,99908.69
2023-12-01T13:19:53.325Z,99920.06
2023-12-01T13:22:41.157Z,99916.44
2023-12-01T13:25:28.837Z,99938.00
2023-12-01T13:28:16.357Z,99934.81
2023-12-01T13:31:04.257Z,99935.81
2023-12-01T13:33:53.424Z,99936.47
2023-12-01T13:36:41.114Z,99944.31
2023-12-01T13:39:28.734Z,99946.69
2023-12-01T13:42:16.364Z,99954.41
2023-12-01T13:45:07.880Z,99956.88
2023-12-01T13:47:58.584Z,99957.03
2023-12-01T13:50:46.205Z,99964.88
2023-12-01T13:53:33.722Z,99966.41
2023-12-01T13:56:21.439Z,99973.22
2023-12-01T13:59:08.914Z,99976.00
2023-12-01T14:01:56.980Z,99976.84
2023-12-01T14:04:47.951Z,99981.97
2023-12-01T14:07:36.485Z,99992.47
2023-12-01T14:10:25.440Z,99994.09
2023-12-01T14:13:13.149Z,99999.47
2023-12-01T14:16:02.718Z,99993.84
2023-12-01T14:18:51.506Z,99994.56
2023-12-01T14:21:39.180Z,100004.69
2023-12-01T14:24:28.334Z,100005.94
2023-12-01T14:27:15.868Z,100002.41
2023-12-01T14:30:04.996Z,100008.38
2023-12-01T14:32:52.979Z,100003.03
2023-12-01T14:35:40.839Z,100013.59
2023-12-01T14:38:28.381Z,100013.41
2023-12-01T14:41:16.001Z,100013.31
2023-12-01T14:44:03.522Z,100015.00
2023-12-01T14:46:51.384Z,100004.31
2023-12-01T14:49:39.022Z,100004.56
2023-12-01T14:52:26.588Z,100000.38
2023-12-01T14:55:14.505Z,100013.41
2023-12-01T14:58:02.011Z,100014.16
2023-12-01T15:00:49.518Z,100021.31
2023-12-01T15:03:37.117Z,100030.84
2023-12-01T15:06:24.690Z,100022.06
2023-12-01T15:09:14.519Z,100039.47
2023-12-01T15:12:02.398Z,100042.94
2023-12-01T15:14:49.927Z,100048.25
2023-12-01T15:17:37.645Z,100049.00
2023-12-01T15:20:25.217Z,100063.97
2023-12-01T15:23:15.439Z,100057.69
2023-12-01T15:26:03.035Z,100061.22
2023-12-01T15:28:50.709Z,100060.41
2023-12-01T15:31:38.254Z,100067.63
2023-12-01T15:34:25.827Z,100080.19
2023-12-01T15:37:13.349Z,100083.69
2023-12-01T15:40:00.965Z,100085.38
2023-12-01T15:42:49.053Z,100087.28
2023-12-01T15:45:36.620Z,100095.94
2023-12-01T15:48:24.224Z,100099.53
2023-12-01T15:51:11.900Z,100098.03
2023-12-01T15:53:59.517Z,100099.72
2023-12-01T15:56:47.091Z,100110.41
2023-12-01T15:59:35.075Z,100115.75
2023-12-01T16:02:24.456Z,100124.66
2023-12-01T16:05:12.114Z,100127.97
2023-12-01T16:07:59.594Z,100134.00
2023-12-01T16:10:47.623Z,100141.84
2023-12-01T16:13:35.362Z,100132.09
2023-12-01T16:16:22.895Z,100136.56
2023-12-01T16:19:10.669Z,100145.31
2023-12-01T16:22:00.206Z,100146.13
2023-12-01T16:24:50.414Z,100145.22
2023-12-01T16:27:38.231Z,100139.88
2023-12-01T16:30:25.729Z,100138.91
2023-12-01T16:33:14.407Z,100143.25
2023-12-01T16:36:30.717Z,100136.13
2023-12-01T16:39:19.915Z,100148.44
2023-12-01T16:42:07.555Z,100143.09
2023-12-01T16:44:55.173Z,100157.13
2023-12-01T16:47:42.746Z,100156.16
2023-12-01T16:50:30.294Z,100152.63
2023-12-01T16:53:17.853Z,100153.50
2023-12-01T16:56:05.737Z,100155.28
2023-12-01T16:58:53.235Z,100153.47
2023-12-01T17:01:44.573Z,100160.47
2023-12-01T17:04:32.344Z,100167.50
2023-12-01T17:07:19.933Z,100171.06
2023-12-01T17:10:08.859Z,100174.59
2023-12-01T17:12:56.439Z,100172.78
2023-12-01T17:15:44.130Z,100168.47
2023-12-01T17:18:31.790Z,100173.75
2023-12-01T17:21:19.360Z,100179.88
2023-12-01T17:24:07.189Z,100183.38
2023-12-01T17:26:54.954Z,100178.06
2023-12-01T17:29:43.058Z,100180.72
2023-12-01T17:32:30.583Z,100175.44
2023-12-01T17:35:18.185Z,100179.81
2023-12-01T17:38:08.233Z,100182.47
2023-12-01T17:40:55.755Z,100181.53
2023-12-01T17:43:43.240Z,100188.66
2023-12-01T17:46:30.944Z,100192.13
2023-12-01T17:49:18.457Z,100198.31
2023-12-01T17:52:06.235Z,100197.41
2023-12-01T17:54:53.900Z,100197.41
2023-12-01T17:57:41.410Z,100195.63
2023-12-01T18:00:28.941Z,100199.13
2023-12-01T18:03:16.616Z,100195.66
2023-12-01T18:06:04.485Z,100194.75
2023-12-01T18:08:52.020Z,100194.75
2023-12-01T18:11:42.694Z,100199.13
2023-12-01T18:14:30.500Z,100207.00
2023-12-01T18:17:18.076Z,100206.16
2023-12-01T18:20:06.441Z,100204.44
2023-12-01T18:22:55.156Z,100198.25
2023-12-01T18:25:42.790Z,100202.69
2023-12-01T18:28:30.425Z,100201.81
2023-12-01T18:31:18.619Z,100205.34
2023-12-01T18:34:06.397Z,100209.78
2023-12-01T18:36:54.079Z,100211.53
2023-12-01T18:39:41.811Z,100220.31
2023-12-01T18:42:31.605Z,100218.53
2023-12-01T18:45:20.195Z,100231.75
2023-12-01T18:48:07.959Z,100225.56
2023-12-01T18:50:55.653Z,100220.28
2023-12-01T18:53:43.229Z,100215.00
2023-12-01T18:56:31.103Z,100211.44
2023-12-01T18:59:18.622Z,100225.47
2023-12-01T19:02:06.409Z,100223.75
2023-12-01T19:04:54.012Z,100246.59
2023-12-01T19:07:41.753Z,100247.50
2023-12-01T19:10:29.266Z,100235.19
2023-12-01T19:13:18.321Z,100241.31
2023-12-01T19:16:07.254Z,100241.31
2023-12-01T19:18:54.927Z,100246.59
2023-12-01T19:21:42.611Z,100245.81
2023-12-01T19:24:30.168Z,100255.47
2023-12-01T19:27:17.687Z,100260.75
2023-12-01T19:30:05.518Z,100258.91
2023-12-01T19:32:54.123Z,100256.28
2023-12-01T19:35:41.721Z,100260.66
2023-12-01T19:38:29.235Z,100260.66
2023-12-01T19:41:16.809Z,100272.97
2023-12-01T19:44:04.682Z,100269.41
2023-12-01T19:46:53.083Z,100276.44
2023-12-01T19:49:40.960Z,100272.88
2023-12-01T19:52:30.186Z,100286.06
2023-12-01T19:55:17.794Z,100294.03
2023-12-01T19:58:05.441Z,100285.19
2023-12-01T20:00:53.031Z,100295.78
2023-12-01T20:03:40.734Z,100301.06
2023-12-01T20:06:28.358Z,100297.50
2023-12-01T20:09:18.814Z,100309.88
2023-12-01T20:12:06.920Z,100310.72
2023-12-01T20:14:54.441Z,100306.25
2023-12-01T20:17:42.156Z,100305.38
2023-12-01T20:20:29.737Z,100314.16
2023-12-01T20:23:17.300Z,100312.41
2023-12-01T20:26:04.838Z,100315.00
2023-12-01T20:28:52.419Z,100306.25
2023-12-01T20:31:41.644Z,100308.09
2023-12-01T20:34:29.393Z,100312.56
2023-12-01T20:37:16.931Z,100331.03
2023-12-01T20:40:06.019Z,100336.22
2023-12-01T20:42:53.630Z,100336.22
2023-12-01T20:45:41.164Z,100336.22
2023-12-01T20:48:28.869Z,100343.25
2023-12-01T20:51:17.362Z,100343.25
2023-12-01T20:54:04.974Z,100337.97
2023-12-01T20:56:52.572Z,100332.59
2023-12-01T20:59:40.042Z,100327.31
2023-12-01T21:02:27.576Z,100329.06
2023-12-01T21:05:15.180Z,100329.06
2023-12-01T21:08:02.724Z,100337.88
2023-12-01T21:10:50.244Z,100349.34
2023-12-01T21:13:38.510Z,100336.16
2023-12-01T21:16:26.031Z,100350.19
2023-12-01T21:19:13.775Z,100352.00
2023-12-01T21:22:01.439Z,100360.78
2023-12-01T21:24:48.950Z,100357.28
2023-12-01T21:27:36.526Z,100355.50
2023-12-01T21:30:24.093Z,100350.19
2023-12-01T21:33:12.003Z,100349.34
2023-12-01T21:35:59.848Z,100357.22
2023-12-01T21:38:48.304Z,100355.50
2023-12-01T21:41:36.085Z,100359.94
2023-12-01T21:44:23.603Z,100359.03
2023-12-01T21:47:11.140Z,100356.34
2023-12-01T21:49:58.702Z,100348.47
2023-12-01T21:52:46.384Z,100362.50
2023-12-01T21:55:34.057Z,100357.22
2023-12-01T21:58:21.576Z,100364.25
2023-12-01T22:01:09.088Z,100369.53
2023-12-01T22:03:56.705Z,100368.66
2023-12-01T22:06:44.232Z,100373.94
2023-12-01T22:09:31.764Z,100373.09
2023-12-01T22:12:19.419Z,100381.03
2023-12-01T22:15:07.954Z,100370.38
2023-12-01T22:17:55.642Z,100373.03
2023-12-01T22:20:43.283Z,100376.56
2023-12-01T22:23:30.773Z,100373.03
2023-12-01T22:26:18.435Z,100381.75
2023-12-01T22:29:06.018Z,100375.63
2023-12-01T22:31:53.600Z,100376.56
2023-12-01T22:34:41.622Z,100373.03
2023-12-01T22:37:29.522Z,100371.28
2023-12-01T22:40:17.235Z,100379.22
2023-12-01T22:43:04.758Z,100381.84
2023-12-01T22:45:52.237Z,100383.72
2023-12-01T22:48:39.809Z,100374.00
2023-12-01T22:51:27.457Z,100383.72
2023-12-01T22:54:15.059Z,100384.56
2023-12-01T22:57:02.611Z,100383.66
2023-12-01T22:59:50.247Z,100381.94
2023-12-01T23:02:37.939Z,100384.53
2023-12-01T23:05:26.272Z,100390.75
2023-12-01T23:08:13.842Z,100381.84
2023-12-01T23:11:01.864Z,100397.72
2023-12-01T23:13:49.498Z,100392.44
2023-12-01T23:16:37.012Z,100390.69
2023-12-01T23:19:24.630Z,100387.16
2023-12-01T23:22:12.920Z,100381.84
2023-12-01T23:25:00.462Z,100385.31
2023-12-01T23:27:48.032Z,100387.03
2023-12-01T23:30:35.750Z,100390.59
2023-12-01T23:33:23.976Z,100383.59
2023-12-01T23:36:11.724Z,100380.00
2023-12-01T23:38:59.354Z,100387.16
2023-12-01T23:41:46.860Z,100388.88
2023-12-01T23:44:34.382Z,100392.44
2023-12-01T23:47:21.890Z,100388.88
2023-12-01T23:50:09.972Z,100396.84
2023-12-01T23:52:57.478Z,100403.00
2023-12-01T23:55:45.274Z,100404.81
2023-12-01T23:58:32.837Z,100403.94
